x

Ilm2 - 5 Miles Se Of Wrightsville Beach, Nc (41038) Weather Station

5:08 - Sun 5th Jul 2015 All times are EDT. -4 hours from GMT.

  • Wind
    7mph, 11mph gusts
  • Sea Temp 78°f
  • Ar Temp 78°f
  • Sea Pressure 1019.3mb
  • Ilm2 - 5 Miles Se Of Wrightsville Beach, Nc
  • Ilm2 - 5 Miles Se Of Wrightsville Beach, Nc

More Historic Weather Station data

Upgrade to MSW Pro to gain access to the past 30 days of data for over 8000 Wavebouys and Weather Stations around the globe.

Join Pro

Comparision Forecast

View Surf forecast
   
Dom 07/05 5:08 7 11 mph 1019.3mb 78f 78f
4:53 7 11 mph 1019.3mb 78f 78f
4:38 9 11 mph 1019mb 78f 79f
4:23 9 11 mph 1018.9mb 78f 79f
4:08 11 13 mph 1018.8mb 78f 79f
3:53 11 13 mph 1018.8mb 78f 79f
3:38 11 16 mph 1018.9mb 78f 79f
3:23 11 16 mph 1018.7mb 78f 79f
3:08 13 18 mph 1018.4mb 78f 80f
2:53 13 16 mph 1018.4mb 78f 80f
2:38 11 13 mph 1018.4mb 78f 80f
2:23 11 16 mph 1018.4mb 78f 80f
2:08 11 16 mph 1018.4mb 78f 80f
1:38 13 18 mph 1018.4mb 78f 80f
1:23 13 16 mph 1018.1mb 78f 79f
1:08 13 18 mph 1018.3mb 78f 79f
12:53 13 18 mph 1018.2mb 78f 79f
12:38 13 20 mph 1018.2mb 78f 79f
12:23 16 20 mph 1018mb 78f 80f
12:08 16 20 mph 1018mb 78f 80f
Sáb 07/04 11:08 18 22 mph 1018.1mb 78f 80f
10:53 18 22 mph 1018.2mb 78f 80f
10:38 16 20 mph 1017.8mb 78f 80f
10:23 18 22 mph 1017.8mb 78f 80f
10:08 18 22 mph 1017.8mb 78f 80f
9:53 18 25 mph 1017.7mb 78f 80f
9:38 18 22 mph 1017.4mb 78f 80f
9:23 16 22 mph 1017.4mb 78f 80f
9:08 18 25 mph 1017.4mb 78f 80f
8:53 18 22 mph 1017.3mb 78f 80f
8:38 20 25 mph 1017mb 78f 80f
8:23 18 22 mph 1016.6mb 79f 80f
8:08 20 25 mph 1016.5mb 79f 80f
7:53 18 25 mph 1016.5mb 79f 80f
7:38 18 22 mph 1016.7mb 79f 80f
7:23 16 22 mph 1016.6mb 79f 80f
7:08 16 20 mph 1016.6mb 79f 80f
6:53 16 20 mph 1016.8mb 79f 80f
6:38 16 20 mph 1016.7mb 79f 81f
6:23 16 20 mph 1016.8mb 79f 81f
6:08 16 22 mph 1016.8mb 79f 81f
5:53 18 25 mph 1016.7mb 79f 81f
5:38 18 25 mph 1016.6mb 79f 81f
5:23 20 25 mph 1016.4mb 79f 80f
5:08 20 27 mph 1016.5mb 79f 80f
4:53 20 25 mph 1016.4mb 79f 80f
4:38 20 27 mph 1016.5mb 79f 80f
4:23 20 25 mph 1016.5mb 79f 80f
4:08 18 22 mph 1016.7mb 79f 80f
3:53 18 22 mph 1016.9mb 79f 80f
3:38 18 25 mph 1016.9mb 79f 80f
3:23 20 25 mph 1016.9mb 79f 80f
3:08 20 25 mph 1017mb 79f 80f
2:53 20 25 mph 1017mb 79f 80f
2:38 20 25 mph 1017mb 79f 80f
2:23 20 27 mph 1017mb 79f 80f
2:08 20 27 mph 1017mb 79f 80f
1:53 22 29 mph 1017.1mb 78f 80f
1:38 20 27 mph 1016.9mb 78f 80f
1:23 18 25 mph 1017.1mb 78f 80f
1:08 18 25 mph 1017mb 78f 80f
12:53 18 22 mph 1017mb 78f 80f
12:38 18 25 mph 1016.9mb 78f 80f
12:23 18 25 mph 1016.9mb 78f 80f
12:08 18 22 mph 1017mb 78f 80f
11:53 13 20 mph 1017.2mb 78f 82f
11:38 13 20 mph 1017mb 78f 82f
11:23 11 16 mph 1016.9mb 78f 82f
11:08 13 18 mph 1016.8mb 78f 82f
10:53 13 18 mph 1016.5mb 78f 82f
10:38 16 22 mph 1016.5mb 78f 82f
10:23 16 22 mph 1016.5mb 78f 81f
10:08 20 27 mph 1016.7mb 78f 81f
9:53 20 27 mph 1016.6mb 78f 81f
9:38 20 25 mph 1016.8mb 78f 80f
9:23 22 29 mph 1016.7mb 78f 81f
9:08 18 25 mph 1016.5mb 78f 80f
7:08 18 22 mph 1015.9mb 78f 80f
6:53 16 22 mph 1015.8mb 78f 79f
6:38 20 25 mph 1015.5mb 78f 80f
6:23 20 25 mph 1015.3mb 78f 80f
6:08 20 27 mph 1015.4mb 78f 80f
5:53 20 27 mph 1014.9mb 78f 80f
5:38 22 27 mph 1014.7mb 78f 80f
5:23 25 34 mph 1014.6mb 78f 80f
5:08 25 31 mph 1014.1mb 78f 80f
4:53 22 31 mph 1014.2mb 78f 80f
4:38 22 31 mph 1014mb 78f 80f
4:23 20 27 mph 1014.1mb 78f 80f
4:08 22 27 mph 1014mb 78f 80f
3:53 20 27 mph 1014.1mb 78f 80f
3:38 20 29 mph 1014.2mb 78f 80f
3:23 22 29 mph 1014mb 78f 80f
3:08 20 27 mph 1014mb 78f 80f
2:53 20 27 mph 1014.3mb 78f 80f
2:38 22 29 mph 1014.4mb 78f 80f
2:23 25 31 mph 1014.3mb 78f 80f
2:08 20 27 mph 1014.3mb 78f 80f
1:53 18 25 mph 1014.5mb 78f 80f
1:38 20 27 mph 1014.5mb 78f 80f
1:23 20 27 mph 1014.4mb 78f 80f
1:08 22 29 mph 1014.5mb 78f 80f
12:53 22 31 mph 1014.6mb 78f 80f
12:38 20 29 mph 1014.5mb 78f 80f
12:23 22 29 mph 1014.3mb 78f 80f
12:08 22 29 mph 1014.5mb 78f 80f
Sex 07/03 11:53 22 29 mph 1014.3mb 78f 79f
11:38 25 31 mph 1014.1mb 78f 79f
11:23 25 31 mph 1013.9mb 78f 79f
11:08 25 29 mph 1014.2mb 78f 78f
10:53 22 29 mph 1013.7mb 78f 79f
10:38 20 27 mph 1013.7mb 79f 78f
10:23 20 25 mph 1013.8mb 79f 78f
10:08 20 27 mph 1013.4mb 79f 78f
9:53 22 27 mph 1013.1mb 79f 78f
9:38 22 29 mph 1012.8mb 79f 78f
9:23 20 29 mph 1012.7mb 79f 78f
9:08 22 29 mph 1012.6mb 79f 78f
8:53 25 34 mph 1012.5mb 79f 78f
8:38 20 27 mph 1012.4mb 79f 78f
8:23 20 27 mph 1012.3mb 79f 78f
8:08 20 27 mph 1012.3mb 79f 79f
7:53 18 22 mph 1012.5mb 79f 78f
7:38 18 25 mph 1012.7mb 79f 78f
7:23 16 22 mph 1012.8mb 79f 79f
7:08 18 22 mph 1013.3mb 79f 79f
6:53 16 22 mph 1013.5mb 79f 80f
6:38 18 25 mph 1013.9mb 79f 79f
6:23 20 27 mph 1014mb 79f 80f
6:08 25 34 mph 1013.7mb 79f 80f
5:53 22 27 mph 1013.9mb 79f 80f
5:38 22 27 mph 1013.5mb 80f 80f
5:23 22 27 mph 1013.8mb 80f 80f
5:08 20 25 mph 1013.6mb 80f 80f
4:53 20 27 mph 1013.7mb 80f 80f
4:38 20 27 mph 1013.7mb 80f 79f
4:23 20 27 mph 1013.5mb 80f 80f
4:08 18 25 mph 1013.6mb 80f 79f
3:53 18 27 mph 1014mb 80f 79f
3:38 20 27 mph 1014mb 80f 79f
3:23 20 25 mph 1014.2mb 80f 79f
3:08 20 29 mph 1014.2mb 80f 79f
2:53 20 25 mph 1014.4mb 80f 79f
2:38 18 22 mph 1014.7mb 80f 79f
2:23 16 22 mph 1014.7mb 80f 79f
2:08 16 20 mph 1014.7mb 80f 79f
1:53 16 20 mph 1014.8mb 80f 79f
1:38 16 20 mph 1014.9mb 79f 79f
1:23 16 20 mph 1015mb 79f 79f
1:08 16 18 mph 1015.3mb 79f 79f
12:53 16 18 mph 1015.4mb 79f 79f
12:38 16 18 mph 1015.5mb 79f 78f
12:23 9 11 mph 1015.8mb 79f 78f
12:08 9 13 mph 1015.9mb 79f 78f
11:53 9 11 mph 1015.9mb 79f 77f
11:38 9 11 mph 1016mb 79f 77f
11:23 9 11 mph 1016mb 79f 77f
11:08 7 11 mph 1016mb 79f 77f
10:53 9 13 mph 1015.9mb 79f 76f
10:38 7 11 mph 1015.8mb 79f 76f
10:23 4 7 mph 1015.7mb 79f 75f
10:08 2 7 mph 1015.7mb 79f 75f
9:53 7 9 mph 1015.8mb 79f 74f
9:38 11 18 mph 1014.4mb 79f 75f
9:23 11 18 mph 1016mb 79f 76f
9:08 11 16 mph 1016.2mb 79f 77f
8:53 9 11 mph 1016mb 79f 77f
8:38 9 11 mph 1016mb 79f 76f
8:23 7 11 mph 1015.8mb 79f 76f
8:08 7 13 mph 1015.8mb 79f 76f
7:53 9 11 mph 1015.7mb 79f 76f
7:38 9 11 mph 1015.6mb 79f 75f
7:23 9 13 mph 1015.4mb 79f 75f
7:08 11 16 mph 1015.3mb 79f 76f
6:53 11 16 mph 1015.1mb 79f 76f
6:38 11 16 mph 1015mb 79f 75f
6:23 11 16 mph 1015mb 79f 76f
6:08 13 16 mph 1015mb 79f 76f
5:53 13 16 mph 1014.9mb 79f 76f
5:38 13 18 mph 1014.7mb 79f 76f
5:23 16 20 mph 1014.8mb 79f 76f
5:08 18 25 mph 1014.7mb 79f 76f
4:53 18 22 mph 1014.6mb 79f 76f
4:38 16 20 mph 1014.4mb 79f 75f
4:23 16 20 mph 1014.5mb 79f 75f
4:08 13 18 mph 1014.2mb 79f 75f
3:53 13 18 mph 1014.1mb 79f 75f
3:38 11 16 mph 1014.1mb 79f 75f
3:23 9 11 mph 1013.9mb 79f 75f
3:08 9 13 mph 1013.7mb 79f 75f
2:53 7 11 mph 1013.5mb 79f 75f
2:38 7 9 mph 1013.3mb 79f 74f
2:23 9 11 mph 1013.3mb 78f 74f
2:08 9 13 mph 1013.4mb 78f 74f
1:53 13 18 mph 1013.4mb 78f 74f
1:38 13 18 mph 1013.2mb 78f 74f
1:23 13 18 mph 1013.3mb 79f 74f
1:08 11 16 mph 1013.4mb 79f 74f
12:53 11 13 mph 1013.7mb 79f 75f
12:38 13 18 mph 1013.4mb 79f 75f
12:08 18 22 mph 1013.3mb 79f 75f
Qui 07/02 11:53 20 27 mph 1013.4mb 79f 75f
11:08 27 34 mph 1013.5mb 79f 75f
10:53 25 34 mph 1013.7mb 79f 76f
10:38 25 31 mph 1014mb 80f 78f
10:23 29 36 mph 1013.5mb 80f 79f
10:08 27 36 mph 1012.4mb 80f 81f
9:53 29 38 mph 1012.5mb 80f 81f
9:38 29 36 mph 1011.9mb 80f 81f
9:23 29 40 mph 1012.4mb 80f 81f
9:08 29 38 mph 1012.4mb 80f 81f
8:53 29 40 mph 1012.2mb 80f 81f
8:08 22 31 mph 1012.2mb 80f 81f
7:53 22 29 mph 1012.1mb 80f 81f
7:38 20 27 mph 1012.5mb 80f 81f
7:23 22 29 mph 1012.6mb 80f 81f
7:08 22 29 mph 1012.5mb 80f 81f
6:53 22 27 mph 1012.2mb 80f 81f
6:38 20 27 mph 1012.2mb 80f 81f
6:23 20 27 mph 1012.1mb 80f 81f
6:08 22 29 mph 1012.1mb 80f 81f
5:53 22 27 mph 1012.2mb 80f 81f
5:08 22 27 mph 1012.6mb 80f 81f
4:53 22 31 mph 1012.8mb 80f 81f
4:38 22 29 mph 1013mb 80f 81f
4:23 22 29 mph 1013.1mb 80f 81f
4:08 20 27 mph 1013.7mb 80f 81f
3:53 18 25 mph 1013.9mb 80f 82f
3:38 20 27 mph 1014mb 80f 82f
3:23 22 31 mph 1014mb 80f 81f
3:08 20 27 mph 1014.1mb 80f 82f
2:53 22 29 mph 1013.9mb 80f 82f
2:38 20 27 mph 1014.3mb 80f 82f
2:23 20 27 mph 1014.2mb 80f 82f
2:08 20 25 mph 1014.2mb 80f 81f
1:53 20 25 mph 1014.4mb 80f 82f
1:38 20 25 mph 1014.5mb 80f 82f
1:23 18 25 mph 1014.6mb 80f 82f
1:08 16 22 mph 1014.8mb 80f 82f
12:53 16 20 mph 1014.7mb 80f 82f
12:08 11 13 mph 1014.9mb 80f 82f
11:53 9 13 mph 1015.1mb 80f 82f
11:38 11 16 mph 1015mb 80f 82f
11:23 11 13 mph 1014.8mb 80f 81f
11:08 11 16 mph 1014.9mb 80f 81f
10:53 9 13 mph 1014.9mb 80f 81f
10:38 9 13 mph 1015mb 80f 80f
10:23 11 13 mph 1015mb 80f 81f
10:08 11 16 mph 1015.1mb 80f 80f
9:53 9 13 mph 1015.2mb 80f 80f
9:38 11 16 mph 1015.1mb 80f 80f
9:23 11 16 mph 1015mb 80f 80f
9:08 13 16 mph 1015.2mb 80f 80f
8:53 13 16 mph 1015.4mb 80f 81f
8:38 13 16 mph 1015.3mb 80f 81f
8:23 11 16 mph 1015.1mb 80f 80f
8:08 13 18 mph 1015.1mb 80f 80f
7:53 13 18 mph 1014.9mb 80f 80f
7:38 13 18 mph 1014.7mb 80f 80f
7:23 11 16 mph 1014.3mb 80f 80f
7:08 11 16 mph 1014.2mb 80f 80f
6:53 13 18 mph 1014.2mb 80f 80f
6:38 13 18 mph 1014mb 80f 80f
6:23 13 18 mph 1013.8mb 80f 80f
6:08 13 18 mph 1013.7mb 80f 80f
5:53 13 18 mph 1013.7mb 80f 80f
5:38 13 18 mph 1013.9mb 80f 80f
5:23 11 18 mph 1013.9mb 80f 80f
5:08 13 16 mph 1013.9mb 80f 80f
4:53 11 18 mph 1014mb 80f 80f
4:38 11 16 mph 1014mb 80f 80f
4:23 11 16 mph 1013.9mb 80f 80f
4:08 9 13 mph 1014mb 80f 80f
3:53 11 16 mph 1014mb 80f 80f
3:38 13 18 mph 1013.9mb 80f 80f
3:23 13 18 mph 1014mb 80f 80f
3:08 16 20 mph 1014.2mb 80f 81f
2:53 16 20 mph 1014.4mb 80f 81f
2:38 16 20 mph 1014.5mb 80f 81f
2:23 16 22 mph 1014.6mb 80f 81f
2:08 16 20 mph 1014.7mb 80f 80f
1:53 13 18 mph 1014.8mb 80f 80f
1:38 13 18 mph 1014.8mb 80f 80f
1:23 13 20 mph 1014.8mb 80f 80f
1:08 13 20 mph 1014.9mb 80f 80f
12:53 13 20 mph 1015.1mb 80f 80f
12:38 16 20 mph 1015.2mb 80f 80f
12:23 13 20 mph 1015.3mb 80f 80f
12:08 13 18 mph 1015.5mb 80f 81f
Qua 07/01 11:53 11 16 mph 1015.6mb 80f 81f
11:08 13 18 mph 1015.6mb 80f 81f
10:53 11 16 mph 1015.4mb 80f 81f
10:38 11 16 mph 1015.2mb 80f 80f
10:23 11 16 mph 1015.2mb 80f 80f
10:08 11 16 mph 1015.2mb 80f 80f
9:53 13 16 mph 1015.1mb 80f 81f
9:38 13 18 mph 1014.9mb 80f 81f
9:23 13 18 mph 1014.8mb 80f 81f
9:08 16 20 mph 1014.6mb 80f 81f
8:53 13 18 mph 1014.6mb 80f 81f
8:38 13 18 mph 1014.6mb 80f 81f
8:23 16 20 mph 1014.7mb 80f 81f
8:08 16 20 mph 1014.6mb 80f 80f
7:53 16 20 mph 1014.5mb 80f 81f
7:38 16 22 mph 1014.4mb 80f 80f
7:23 16 20 mph 1014.1mb 81f 80f
7:08 18 22 mph 1013.8mb 81f 80f
6:53 18 22 mph 1013.7mb 81f 80f
6:38 18 25 mph 1013.6mb 81f 80f
6:23 18 22 mph 1013.6mb 81f 80f
5:53 20 25 mph 1013.6mb 81f 80f
5:08 20 27 mph 1013.7mb 81f 80f
4:53 20 27 mph 1013.6mb 81f 80f
4:38 20 27 mph 1013.7mb 81f 80f
4:23 20 25 mph 1013.4mb 81f 79f
4:08 20 25 mph 1013.7mb 81f 79f
3:53 20 25 mph 1013.7mb 81f 79f
3:38 18 25 mph 1014.2mb 81f 79f
3:23 18 25 mph 1014.3mb 81f 79f
3:08 16 22 mph 1014.6mb 81f 80f
2:53 18 22 mph 1014.8mb 81f 80f
2:38 16 22 mph 1014.6mb 81f 80f
2:23 16 22 mph 1014.7mb 81f 80f
2:08 16 20 mph 1014.7mb 81f 80f
1:53 16 20 mph 1014.9mb 81f 80f
1:38 13 18 mph 1015mb 80f 80f
1:23 13 18 mph 1015.2mb 80f 80f
1:08 13 18 mph 1015.4mb 80f 80f
12:53 13 18 mph 1015.5mb 80f 80f
12:38 13 16 mph 1015.6mb 80f 80f
12:23 13 18 mph 1015.7mb 80f 80f
12:08 13 18 mph 1015.7mb 80f 80f
11:53 13 18 mph 1015.5mb 80f 80f
11:38 16 18 mph 1015.6mb 80f 80f
11:23 16 20 mph 1015.6mb 80f 80f
11:08 13 18 mph 1015.5mb 80f 80f
10:53 13 16 mph 1015.4mb 80f 80f